Time;durP1;ratioP1;P1;durP2;ratioP2;P2;SDS_P1;SDS_P2;PMS_P1;PMS_P2;Temp;Humidity;BMP_temperature;BMP_pressure;BME280_temperature;BME280_humidity;BME280_pressure;Samples;Min_cycle;Max_cycle;Signal;HPM_P1;HPM_P2
2022/05/24 00:05:10;;;;;;;3.40;1.92;;;20.40;99.90;;;;;;1952166;72;22662;-81
2022/05/24 00:08:20;;;;;;;4.10;2.17;;;20.40;99.90;;;;;;1951453;73;21118;-81
2022/05/24 00:11:30;;;;;;;5.53;2.60;;;20.30;99.90;;;;;;1917220;75;21175;-82
2022/05/24 00:17:55;;;;;;;4.15;2.30;;;20.20;99.90;;;;;;1917557;74;21139;-81
2022/05/24 00:20:50;;;;;;;4.95;2.30;;;20.30;99.90;;;;;;1917638;75;21050;-81
2022/05/24 00:23:41;;;;;;;4.28;2.33;;;20.30;99.90;;;;;;1940097;73;21143;-81
2022/05/24 00:26:34;;;;;;;4.80;2.50;;;20.20;99.90;;;;;;1917281;75;21219;-81
2022/05/24 00:29:25;;;;;;;7.40;3.00;;;20.20;99.90;;;;;;1917669;75;21055;-81
2022/05/24 00:34:56;;;;;;;8.60;2.77;;;20.10;99.90;;;;;;1947550;72;22359;-82
2022/05/24 00:38:07;;;;;;;6.50;3.10;;;20.10;99.90;;;;;;1907047;75;21050;-83
2022/05/24 00:44:04;;;;;;;5.12;3.02;;;20.20;99.90;;;;;;1953356;72;22134;-81
2022/05/24 00:47:16;;;;;;;4.53;3.30;;;20.10;99.90;;;;;;1906585;75;21113;-82
2022/05/24 00:50:29;;;;;;;8.48;3.22;;;20.10;99.90;;;;;;1903805;75;21094;-82
2022/05/24 00:53:24;;;;;;;6.37;3.37;;;20.20;99.90;;;;;;1884730;76;21114;-82
2022/05/24 00:56:59;;;;;;;6.05;3.25;;;20.10;99.90;;;;;;1901811;75;21023;-82
2022/05/24 00:59:54;;;;;;;4.90;3.05;;;20.10;99.90;;;;;;1902014;75;21106;-82
2022/05/24 01:02:47;;;;;;;9.25;3.47;;;20.10;99.90;;;;;;1902246;75;21083;-82
2022/05/24 01:08:16;;;;;;;5.25;3.10;;;20.10;99.90;;;;;;1954359;72;22165;-81
2022/05/24 01:11:27;;;;;;;5.40;2.80;;;20.10;99.90;;;;;;1883524;75;21648;-81
2022/05/24 01:14:38;;;;;;;5.50;3.12;;;20.10;99.90;;;;;;1903780;75;21077;-81
2022/05/24 01:17:29;;;;;;;4.47;2.83;;;20.10;99.90;;;;;;1883743;75;21100;-81
2022/05/24 01:23:25;;;;;;;5.35;2.52;;;19.90;99.90;;;;;;1934626;72;22206;-81
2022/05/24 01:29:22;;;;;;;6.25;2.27;;;19.90;99.90;;;;;;1946172;72;22099;-81
2022/05/24 01:36:11;;;;;;;;;;;20.00;99.90;;;;;;1878651;75;21586;-81
2022/05/24 01:39:05;;;;;;;5.83;2.80;;;20.00;99.90;;;;;;1884522;75;20127;-81
2022/05/24 01:44:40;;;;;;;6.90;2.95;;;20.00;99.90;;;;;;1967062;72;22109;-81
2022/05/24 01:47:53;;;;;;;5.47;2.80;;;20.00;99.90;;;;;;1917435;75;21525;-81
2022/05/24 01:51:06;;;;;;;7.12;2.80;;;19.90;99.90;;;;;;1937188;73;21533;-81
2022/05/24 01:54:00;;;;;;;7.12;3.40;;;19.90;99.90;;;;;;1917481;75;21058;-82
2022/05/24 01:57:15;;;;;;;3.70;2.70;;;20.00;99.90;;;;;;1917345;75;21156;-82
2022/05/24 02:00:12;;;;;;;6.17;2.85;;;19.90;99.90;;;;;;1939405;73;21131;-82
2022/05/24 02:03:08;;;;;;;6.45;3.35;;;19.90;99.90;;;;;;1917404;75;21153;-81
2022/05/24 02:08:39;;;;;;;5.95;3.17;;;19.60;99.90;;;;;;1953387;72;22628;-82
2022/05/24 02:11:51;;;;;;;5.15;2.98;;;19.70;99.90;;;;;;1906364;75;21181;-82
2022/05/24 02:15:04;;;;;;;3.87;2.37;;;19.70;99.90;;;;;;1902738;75;21098;-82
2022/05/24 02:18:00;;;;;;;5.60;2.42;;;19.70;99.90;;;;;;1890096;75;21125;-82
2022/05/24 02:23:52;;;;;;;3.05;1.90;;;19.50;99.90;;;;;;1955074;72;22595;-81
2022/05/24 02:27:04;;;;;;;3.80;1.67;;;19.60;99.90;;;;;;1898103;75;21530;-81
2022/05/24 02:30:17;;;;;;;4.90;1.57;;;19.60;99.90;;;;;;1897051;75;21046;-82
2022/05/24 02:33:09;;;;;;;3.62;1.30;;;19.60;99.90;;;;;;1906824;75;21494;-82
2022/05/24 02:38:58;;;;;;;3.80;2.42;;;19.60;99.90;;;;;;1958442;72;22519;-81
2022/05/24 02:42:09;;;;;;;7.75;2.72;;;19.60;99.90;;;;;;1907754;75;21082;-81
2022/05/24 02:48:00;;;;;;;4.62;2.45;;;19.60;99.90;;;;;;1951843;72;22122;-82
2022/05/24 02:51:11;;;;;;;4.75;2.30;;;19.60;99.90;;;;;;1886009;75;21185;-81
2022/05/24 02:54:20;;;;;;;4.28;1.70;;;19.50;99.90;;;;;;1898631;75;21107;-81
2022/05/24 02:57:12;;;;;;;6.25;2.33;;;19.50;99.90;;;;;;1904893;75;21094;-81
2022/05/24 03:00:25;;;;;;;2.72;1.32;;;19.50;99.90;;;;;;1882326;75;21152;-81
2022/05/24 03:03:18;;;;;;;5.67;1.92;;;19.40;99.90;;;;;;1899190;75;21089;-81
2022/05/24 03:15:44;;;;;;;2.80;1.60;;;19.50;99.90;;;;;;1884899;75;21112;-81
2022/05/24 03:18:36;;;;;;;1.82;1.20;;;19.40;99.90;;;;;;1887584;75;21636;-82
2022/05/24 03:21:46;;;;;;;3.15;1.75;;;19.40;99.90;;;;;;1901679;75;21047;-82
2022/05/24 03:24:38;;;;;;;4.35;2.35;;;19.30;99.90;;;;;;1917585;75;21774;-81
2022/05/24 03:30:10;;;;;;;4.45;2.00;;;19.20;99.90;;;;;;1958029;72;22559;-81
2022/05/24 03:33:20;;;;;;;5.87;2.67;;;19.30;99.90;;;;;;1874772;75;21182;-82
2022/05/24 03:39:12;;;;;;;6.83;2.80;;;19.30;99.90;;;;;;1951773;72;22106;-81
2022/05/24 03:42:22;;;;;;;7.05;2.77;;;19.30;99.90;;;;;;1884268;75;21043;-82
2022/05/24 03:45:32;;;;;;;5.10;3.02;;;19.30;99.90;;;;;;1906365;75;21119;-81
2022/05/24 03:48:24;;;;;;;4.45;2.45;;;19.30;99.90;;;;;;1901258;75;21110;-82
2022/05/24 03:51:33;;;;;;;7.33;2.42;;;19.20;99.90;;;;;;1887013;75;21111;-82
2022/05/24 03:54:25;;;;;;;6.17;2.50;;;19.10;99.90;;;;;;1894205;75;21572;-82
2022/05/24 04:03:06;;;;;;;5.33;2.30;;;19.10;99.90;;;;;;1955024;72;22138;-85
2022/05/24 04:08:55;;;;;;;7.08;2.45;;;19.10;99.90;;;;;;1943422;72;22180;-84
2022/05/24 04:12:08;;;;;;;4.15;1.80;;;19.10;99.90;;;;;;1936074;73;21132;-84
2022/05/24 04:17:57;;;;;;;3.83;1.80;;;19.10;99.90;;;;;;1941303;72;22126;-84
2022/05/24 04:21:06;;;;;;;2.87;1.20;;;19.00;99.90;;;;;;1904102;75;21148;-81
2022/05/24 04:24:18;;;;;;;3.77;0.82;;;19.00;99.90;;;;;;1908820;75;21135;-85
2022/05/24 04:27:11;;;;;;;1.80;0.57;;;19.00;99.90;;;;;;1909690;75;21633;-84
2022/05/24 04:33:01;;;;;;;1.02;0.45;;;18.60;99.90;;;;;;1946502;72;22196;-84
2022/05/24 04:36:11;;;;;;;3.15;0.70;;;18.40;99.90;;;;;;1915248;73;21153;-85
2022/05/24 04:39:21;;;;;;;2.05;0.50;;;18.50;99.90;;;;;;1913591;75;21125;-84
2022/05/24 04:42:19;;;;;;;1.72;0.60;;;18.30;99.90;;;;;;1906701;75;21055;-85
2022/05/24 04:45:29;;;;;;;1.35;0.62;;;18.20;99.90;;;;;;1905811;75;21546;-85
2022/05/24 04:50:59;;;;;;;2.75;0.78;;;18.10;99.90;;;;;;1936892;72;22173;-85
2022/05/24 04:54:09;;;;;;;2.67;0.78;;;18.00;99.90;;;;;;1878100;75;21540;-84
2022/05/24 04:57:19;;;;;;;3.17;0.78;;;17.90;99.90;;;;;;1872897;76;21043;-85
2022/05/24 05:00:14;;;;;;;1.40;0.53;;;17.80;99.90;;;;;;1873171;75;21188;-84
2022/05/24 05:03:25;;;;;;;2.62;0.50;;;17.80;99.90;;;;;;1895030;75;21056;-85
2022/05/24 05:06:18;;;;;;;3.15;0.60;;;17.70;99.90;;;;;;1887554;75;21640;-85
2022/05/24 05:09:11;;;;;;;3.45;0.70;;;17.80;99.90;;;;;;1885575;75;21130;-85
2022/05/24 05:12:11;;;;;;;2.25;0.60;;;17.70;99.90;;;;;;1875097;75;21117;-85
2022/05/24 05:15:06;;;;;;;1.50;0.60;;;17.80;99.90;;;;;;1878875;73;21198;-85
2022/05/24 05:18:03;;;;;;;1.20;0.57;;;17.80;99.90;;;;;;1890861;73;21064;-86
2022/05/24 05:20:55;;;;;;;2.95;0.88;;;17.70;99.90;;;;;;1888736;75;21114;-84
2022/05/24 05:23:47;;;;;;;1.05;0.42;;;17.70;99.90;;;;;;1885337;75;21107;-86
2022/05/24 05:26:38;;;;;;;4.28;0.40;;;17.70;99.90;;;;;;1901897;75;21103;-86
2022/05/24 05:32:54;;;;;;;0.53;0.50;;;17.50;99.90;;;;;;1911252;74;21098;-85
2022/05/24 05:38:27;;;;;;;2.10;0.50;;;17.60;99.90;;;;;;1934967;72;22114;-86
2022/05/24 05:44:15;;;;;;;3.45;0.80;;;17.60;99.90;;;;;;1968388;72;22195;-85
2022/05/24 05:50:13;;;;;;;2.30;0.40;;;17.60;99.90;;;;;;1956514;72;22143;-86
2022/05/24 05:53:23;;;;;;;4.03;0.60;;;17.70;99.90;;;;;;1905223;75;21138;-88
2022/05/24 05:56:33;;;;;;;1.30;0.33;;;17.80;99.90;;;;;;1917352;75;21087;-85
2022/05/24 05:59:24;;;;;;;1.47;0.37;;;17.70;99.90;;;;;;1917402;75;21107;-85
2022/05/24 06:02:34;;;;;;;2.70;0.40;;;17.60;99.90;;;;;;1933807;73;21115;-85
2022/05/24 06:08:08;;;;;;;2.90;0.40;;;17.50;99.90;;;;;;1943074;72;22198;-84
2022/05/24 06:13:56;;;;;;;2.95;0.40;;;17.60;99.90;;;;;;1955338;72;22260;-84
2022/05/24 06:17:07;;;;;;;0.57;0.20;;;17.60;99.90;;;;;;1895393;74;21104;-87
2022/05/24 06:20:19;;;;;;;1.55;0.33;;;17.50;99.90;;;;;;1895223;75;21136;-84
2022/05/24 06:28:32;;;;;;;2.92;0.20;;;17.50;99.90;;;;;;1951166;72;22578;-84
2022/05/24 06:31:44;;;;;;;2.17;0.30;;;17.70;99.90;;;;;;1873269;75;21047;-85
2022/05/24 06:34:54;;;;;;;2.50;0.85;;;17.90;99.90;;;;;;1904604;75;21032;-84
2022/05/24 06:40:30;;;;;;;1.65;0.30;;;17.90;99.90;;;;;;1946270;72;22218;-85
2022/05/24 06:43:39;;;;;;;0.55;0.30;;;17.90;99.90;;;;;;1891398;75;21467;-85
2022/05/24 06:49:29;;;;;;;2.22;0.40;;;17.60;99.90;;;;;;1956071;72;22134;-82
2022/05/24 06:55:20;;;;;;;1.30;0.25;;;17.60;99.90;;;;;;1934120;72;22119;-84
2022/05/24 06:58:30;;;;;;;2.67;0.40;;;17.40;99.90;;;;;;1891957;75;21080;-87
2022/05/24 07:04:54;;;;;;;0.90;0.20;;;17.40;99.90;;;;;;1884406;75;21258;-86
2022/05/24 07:08:05;;;;;;;1.37;0.40;;;17.50;99.90;;;;;;1891895;75;21032;-87
2022/05/24 07:13:45;;;;;;;0.65;0.28;;;17.70;99.90;;;;;;1943248;72;22142;-84
2022/05/24 07:16:55;;;;;;;0.40;0.20;;;17.60;99.90;;;;;;1913341;74;21023;-84
2022/05/24 07:20:08;;;;;;;2.80;0.25;;;17.60;99.90;;;;;;1928793;73;21104;-84
2022/05/24 07:23:08;;;;;;;0.55;0.25;;;17.70;99.90;;;;;;1909442;74;21184;-86
2022/05/24 07:26:22;;;;;;;0.85;0.30;;;17.80;99.90;;;;;;1926607;73;21090;-85
2022/05/24 07:31:56;;;;;;;0.47;0.15;;;17.60;99.90;;;;;;1946311;72;22646;-88
2022/05/24 07:35:09;;;;;;;0.55;0.20;;;17.50;99.90;;;;;;1885742;75;21091;-86
2022/05/24 07:38:19;;;;;;;1.32;0.35;;;17.30;99.90;;;;;;1888279;75;21093;-86
2022/05/24 07:48:07;;;;;;;1.10;0.20;;;17.40;99.90;;;;;;1894654;75;21121;-86
2022/05/24 07:53:42;;;;;;;2.12;0.20;;;17.30;99.90;;;;;;1943795;72;22220;-83
2022/05/24 07:56:52;;;;;;;0.78;0.30;;;17.20;99.90;;;;;;1894860;75;21117;-85
2022/05/24 08:00:03;;;;;;;0.72;0.20;;;17.20;99.90;;;;;;1883832;75;21109;-86
2022/05/24 08:08:19;;;;;;;0.62;0.10;;;17.40;99.90;;;;;;1943591;72;22240;-85
2022/05/24 08:11:29;;;;;;;0.37;0.20;;;17.50;99.90;;;;;;1888613;75;21143;-88
2022/05/24 08:14:40;;;;;;;4.65;0.30;;;17.50;99.90;;;;;;1879753;75;21071;-86
2022/05/24 08:17:34;;;;;;;1.65;0.20;;;17.60;99.90;;;;;;1897933;75;21127;-86
2022/05/24 08:20:44;;;;;;;0.62;0.23;;;17.70;99.90;;;;;;1897612;75;21197;-85
2022/05/24 08:23:36;;;;;;;1.15;0.25;;;17.70;99.90;;;;;;1883283;75;21086;-86
2022/05/24 08:26:28;;;;;;;1.32;0.20;;;17.80;99.90;;;;;;1887093;75;21168;-86
2022/05/24 08:29:21;;;;;;;1.10;0.30;;;17.90;99.90;;;;;;1893581;75;21130;-86
2022/05/24 08:32:16;;;;;;;0.25;0.15;;;18.10;99.90;;;;;;1889451;75;21171;-86
2022/05/24 08:35:19;;;;;;;2.58;0.30;;;18.20;99.90;;;;;;1905110;75;21519;-86
2022/05/24 08:38:13;;;;;;;2.47;0.28;;;18.20;99.90;;;;;;1878183;75;21070;-85
2022/05/24 08:51:15;;;;;;;1.67;0.40;;;18.00;99.90;;;;;;1905064;74;21126;-86
2022/05/24 08:54:11;;;;;;;0.88;0.23;;;18.10;99.90;;;;;;1905227;75;21471;-86
2022/05/24 08:57:25;;;;;;;1.40;0.20;;;18.20;99.90;;;;;;1905122;75;21075;-86
2022/05/24 09:00:22;;;;;;;2.75;0.20;;;18.10;99.90;;;;;;1906640;74;21062;-86
2022/05/24 09:03:14;;;;;;;1.27;0.20;;;18.10;99.90;;;;;;1924923;74;21124;-87
2022/05/24 09:08:52;;;;;;;1.02;0.30;;;18.30;99.90;;;;;;1938420;72;22142;-86
2022/05/24 09:12:10;;;;;;;3.17;0.57;;;18.30;99.90;;;;;;1912458;74;21094;-86
2022/05/24 09:18:19;;;;;;;1.52;0.30;;;18.40;99.90;;;;;;1951843;72;22237;-86
2022/05/24 09:21:23;;;;;;;1.35;0.30;;;18.50;99.90;;;;;;1905973;75;21176;-87
2022/05/24 09:24:20;;;;;;;1.65;0.20;;;18.40;99.90;;;;;;1903610;75;21156;-87
2022/05/24 09:27:18;;;;;;;1.50;0.40;;;18.50;99.90;;;;;;1917708;75;21168;-86
2022/05/24 09:30:14;;;;;;;0.98;0.30;;;18.70;99.90;;;;;;1906332;75;21077;-86
2022/05/24 09:33:23;;;;;;;0.80;0.25;;;18.70;99.90;;;;;;1913875;75;21095;-86
2022/05/24 09:39:10;;;;;;;3.67;0.30;;;18.60;99.90;;;;;;1951831;72;22400;-86
2022/05/24 09:42:28;;;;;;;0.55;0.20;;;18.60;99.90;;;;;;1921974;73;21358;-87
2022/05/24 09:45:45;;;;;;;1.52;0.30;;;18.60;99.90;;;;;;1917386;75;21035;-87
2022/05/24 09:48:40;;;;;;;2.27;0.40;;;18.60;99.90;;;;;;1917964;75;21120;-87
2022/05/24 09:54:32;;;;;;;3.33;0.40;;;18.90;99.90;;;;;;1964084;72;22295;-85
2022/05/24 09:57:44;;;;;;;1.30;0.20;;;18.80;99.90;;;;;;1938205;73;21047;-86
2022/05/24 10:00:57;;;;;;;0.65;0.30;;;18.70;99.90;;;;;;1939787;73;21105;-86
2022/05/24 10:03:50;;;;;;;1.55;0.35;;;18.70;99.90;;;;;;1923520;73;21116;-86
2022/05/24 10:07:02;;;;;;;1.27;0.20;;;18.80;99.90;;;;;;1936271;73;21144;-86
2022/05/24 10:10:09;;;;;;;0.70;0.30;;;18.80;99.90;;;;;;1917399;75;21178;-85
2022/05/24 10:13:08;;;;;;;1.25;0.30;;;18.90;99.90;;;;;;1917289;75;21197;-86
2022/05/24 10:18:57;;;;;;;1.30;0.20;;;18.90;99.90;;;;;;1943335;72;22292;-88
2022/05/24 10:22:12;;;;;;;0.65;0.30;;;18.80;99.90;;;;;;1906883;75;21059;-86
2022/05/24 10:25:27;;;;;;;1.15;0.20;;;18.80;99.90;;;;;;1884190;76;21135;-87
2022/05/24 10:28:24;;;;;;;0.70;0.30;;;18.90;99.90;;;;;;1916001;75;21160;-87
2022/05/24 10:40:34;;;;;;;2.20;0.30;;;19.00;99.90;;;;;;1944304;72;22223;-86
2022/05/24 10:44:06;;;;;;;0.78;0.30;;;19.20;99.90;;;;;;1938861;73;21059;-88
2022/05/24 10:47:22;;;;;;;1.17;0.30;;;19.20;99.90;;;;;;1917366;75;21089;-87
2022/05/24 10:50:21;;;;;;;1.60;0.40;;;19.40;99.90;;;;;;1917493;75;21081;-87
2022/05/24 10:53:34;;;;;;;1.65;0.30;;;19.40;99.90;;;;;;1939736;73;21043;-87
2022/05/24 10:56:38;;;;;;;0.93;0.30;;;19.40;99.90;;;;;;1935397;73;21110;-87
2022/05/24 10:59:38;;;;;;;2.30;0.68;;;19.50;99.90;;;;;;1917585;75;21517;-87
2022/05/24 11:02:38;;;;;;;1.20;0.30;;;19.80;99.90;;;;;;1917352;75;21578;-86
2022/05/24 11:05:34;;;;;;;1.50;0.40;;;19.90;99.90;;;;;;1917552;75;21070;-87
2022/05/24 11:08:36;;;;;;;0.72;0.35;;;20.20;99.90;;;;;;1917825;75;21095;-87
2022/05/24 11:14:14;;;;;;;0.85;0.20;;;20.50;99.90;;;;;;1954686;72;22119;-86
2022/05/24 11:17:25;;;;;;;0.85;0.30;;;20.80;99.90;;;;;;1939032;73;21162;-87
2022/05/24 11:23:24;;;;;;;0.45;0.35;;;20.60;99.90;;;;;;1946676;72;22117;-87
2022/05/24 11:26:39;;;;;;;0.78;0.37;;;21.10;99.90;;;;;;1913418;75;21040;-87
2022/05/24 11:29:52;;;;;;;0.80;0.30;;;21.60;99.90;;;;;;1911288;75;21640;-87
2022/05/24 11:32:47;;;;;;;0.55;0.30;;;21.40;99.90;;;;;;1906102;75;21667;-86
2022/05/24 11:36:01;;;;;;;0.85;0.40;;;21.40;99.90;;;;;;1906133;75;21051;-88
2022/05/24 11:38:56;;;;;;;1.17;0.30;;;21.20;99.90;;;;;;1884715;75;21222;-88
2022/05/24 11:41:50;;;;;;;1.07;0.57;;;21.20;99.90;;;;;;1899990;75;21564;-88
2022/05/24 11:44:42;;;;;;;3.05;0.50;;;21.30;99.90;;;;;;1895635;75;21143;-87
2022/05/24 11:48:02;;;;;;;0.95;0.42;;;21.50;99.90;;;;;;1895237;75;21117;-87
2022/05/24 11:50:55;;;;;;;75.37;8.28;;;21.90;99.90;;;;;;1888595;75;21103;-88
2022/05/24 11:53:48;;;;;;;1.62;0.42;;;22.40;99.90;;;;;;1884883;76;21062;-87
2022/05/24 11:56:40;;;;;;;4.62;0.78;;;22.50;99.90;;;;;;1903609;75;21051;-87
2022/05/24 11:59:53;;;;;;;0.95;0.40;;;22.00;99.90;;;;;;1917646;75;21131;-87
2022/05/24 12:09:21;;;;;;;0.85;0.30;;;22.50;99.90;;;;;;1898596;75;21093;-86
2022/05/24 12:12:19;;;;;;;2.62;0.40;;;22.30;99.90;;;;;;1885590;75;21112;-87
2022/05/24 12:15:21;;;;;;;0.80;0.42;;;22.50;99.90;;;;;;1906566;75;21555;-87
2022/05/24 12:18:20;;;;;;;5.60;0.80;;;22.80;99.90;;;;;;1906733;75;21139;-87
2022/05/24 12:22:09;;;;;;;1.95;0.45;;;23.20;99.90;;;;;;1906511;75;21223;-87
2022/05/24 12:25:04;;;;;;;3.55;0.80;;;23.30;99.90;;;;;;1877109;75;21094;-87
2022/05/24 12:27:57;;;;;;;2.35;0.65;;;23.10;99.90;;;;;;1913994;75;21055;-87
2022/05/24 12:30:51;;;;;;;1.47;0.33;;;23.50;99.90;;;;;;1884582;76;21062;-87
2022/05/24 12:33:46;;;;;;;1.72;0.40;;;23.70;99.90;;;;;;1883752;76;21059;-87
2022/05/24 12:36:47;;;;;;;1.50;0.40;;;23.80;99.90;;;;;;1883979;76;21054;-87
2022/05/24 12:39:40;;;;;;;0.68;0.40;;;23.80;99.90;;;;;;1883897;76;21101;-87
2022/05/24 12:42:34;;;;;;;0.40;0.30;;;23.90;99.90;;;;;;1883877;76;21105;-87
2022/05/24 12:45:31;;;;;;;0.80;0.30;;;23.40;99.90;;;;;;1884003;76;21582;-88
2022/05/24 12:48:39;;;;;;;1.00;0.35;;;23.00;99.90;;;;;;1901492;75;21117;-88
2022/05/24 12:51:31;;;;;;;0.80;0.40;;;22.80;99.90;;;;;;1899562;75;21036;-87
2022/05/24 12:54:29;;;;;;;1.45;0.40;;;22.50;99.90;;;;;;1884544;75;21121;-87
2022/05/24 12:57:27;;;;;;;0.65;0.40;;;22.60;99.90;;;;;;1890315;75;21142;-87
2022/05/24 13:00:24;;;;;;;1.57;0.42;;;22.50;99.90;;;;;;1892002;75;21063;-87
2022/05/24 13:03:24;;;;;;;1.47;0.40;;;22.50;99.90;;;;;;1883922;75;21159;-87
2022/05/24 13:06:24;;;;;;;1.60;0.50;;;22.40;99.90;;;;;;1897005;75;21113;-87
2022/05/24 13:09:27;;;;;;;0.75;0.35;;;22.40;99.90;;;;;;1898235;75;21056;-87
2022/05/24 13:12:20;;;;;;;0.62;0.45;;;22.00;99.90;;;;;;1905438;75;21110;-87
2022/05/24 13:15:15;;;;;;;2.72;0.40;;;22.10;99.90;;;;;;1906380;75;21086;-88
2022/05/24 13:18:14;;;;;;;0.70;0.40;;;22.10;99.90;;;;;;1885577;75;21066;-87
2022/05/24 13:21:13;;;;;;;3.05;0.50;;;22.20;99.90;;;;;;1916667;75;21064;-87
2022/05/24 13:24:15;;;;;;;0.20;0.20;;;22.30;99.90;;;;;;1910564;74;21719;-88
2022/05/24 13:27:09;;;;;;;0.47;0.40;;;22.40;99.90;;;;;;1913143;74;21059;-87
2022/05/24 13:36:25;;;;;;;2.70;0.42;;;22.00;99.90;;;;;;1910359;74;21156;-87
2022/05/24 13:39:21;;;;;;;2.80;0.70;;;21.90;99.90;;;;;;1930055;74;21149;-87
2022/05/24 13:42:26;;;;;;;0.95;0.55;;;21.70;99.90;;;;;;1899609;75;21163;-87
2022/05/24 13:45:21;;;;;;;2.60;0.45;;;21.60;99.90;;;;;;1842411;77;21090;-87
2022/05/24 13:48:28;;;;;;;1.25;0.50;;;21.60;99.90;;;;;;1913860;74;21178;-87
2022/05/24 13:51:23;;;;;;;0.60;0.40;;;21.50;99.90;;;;;;1838520;77;21159;-88
2022/05/24 13:54:37;;;;;;;2.15;0.40;;;21.30;99.90;;;;;;1908048;74;21127;-87
2022/05/24 13:57:30;;;;;;;1.65;0.40;;;21.40;99.90;;;;;;1910768;74;21160;-87
2022/05/24 14:00:37;;;;;;;1.40;0.40;;;21.30;99.90;;;;;;1907645;74;21111;-87
2022/05/24 14:03:31;;;;;;;1.27;0.50;;;21.10;99.90;;;;;;1921514;74;21196;-86
2022/05/24 14:06:25;;;;;;;1.22;0.40;;;21.20;99.90;;;;;;1899616;75;21098;-86
2022/05/24 14:09:18;;;;;;;1.67;0.47;;;21.40;99.90;;;;;;1839980;77;21105;-86
2022/05/24 14:12:13;;;;;;;1.47;0.50;;;21.20;99.90;;;;;;1921844;74;21083;-87
2022/05/24 14:15:06;;;;;;;1.02;0.50;;;21.20;99.90;;;;;;1926623;74;21120;-87
2022/05/24 14:17:59;;;;;;;0.57;0.40;;;21.30;99.90;;;;;;1933266;74;21067;-87
2022/05/24 14:20:53;;;;;;;1.82;0.60;;;21.20;99.90;;;;;;1915276;74;21285;-87
2022/05/24 14:30:16;;;;;;;0.95;0.42;;;21.60;99.90;;;;;;1961034;72;22280;-87
2022/05/24 14:33:30;;;;;;;1.27;0.50;;;21.70;99.90;;;;;;1916528;75;21019;-87
2022/05/24 14:36:44;;;;;;;3.05;0.75;;;21.80;99.90;;;;;;1931006;73;21049;-87
2022/05/24 14:39:36;;;;;;;4.37;1.00;;;21.90;99.90;;;;;;1920296;73;21130;-87
2022/05/24 14:42:48;;;;;;;0.95;0.40;;;22.00;99.90;;;;;;1939824;73;21605;-87
2022/05/24 14:45:41;;;;;;;3.30;0.45;;;22.20;99.90;;;;;;1940286;73;21126;-88
2022/05/24 14:48:37;;;;;;;0.40;0.37;;;22.10;99.90;;;;;;1937302;73;21108;-88
2022/05/24 14:51:37;;;;;;;1.07;0.35;;;21.90;99.90;;;;;;1934757;73;21156;-87
2022/05/24 14:54:26;;;;;;;2.15;0.50;;;22.00;99.90;;;;;;1917477;75;21139;-87
2022/05/24 14:57:19;;;;;;;3.50;0.75;;;22.20;99.90;;;;;;1917407;75;21079;-87
2022/05/24 15:00:14;;;;;;;3.00;0.80;;;22.10;99.90;;;;;;1917239;75;21128;-87
2022/05/24 15:03:07;;;;;;;1.50;0.40;;;22.00;99.90;;;;;;1916900;75;21076;-88
2022/05/24 15:06:01;;;;;;;0.75;0.42;;;21.80;99.90;;;;;;1917257;75;21042;-87
2022/05/24 15:15:23;;;;;;;1.42;0.68;;;21.30;99.90;;;;;;1917360;75;21161;-87
2022/05/24 15:18:16;;;;;;;1.25;0.50;;;21.40;99.90;;;;;;1921756;73;21506;-87
2022/05/24 15:21:09;;;;;;;1.12;0.30;;;21.40;99.90;;;;;;1929717;73;21510;-89
2022/05/24 15:24:07;;;;;;;1.07;0.20;;;21.20;99.90;;;;;;1916865;75;21055;-87
2022/05/24 15:27:02;;;;;;;3.52;0.80;;;21.10;99.90;;;;;;1917293;75;21149;-87
2022/05/24 15:29:54;;;;;;;1.27;0.50;;;21.10;99.90;;;;;;1911374;75;21149;-88
2022/05/24 15:32:48;;;;;;;2.00;0.60;;;21.00;99.90;;;;;;1904700;75;21102;-87
2022/05/24 15:35:40;;;;;;;0.95;0.50;;;21.00;99.90;;;;;;1904948;75;21545;-88
2022/05/24 15:38:32;;;;;;;1.37;0.80;;;21.10;99.90;;;;;;1905505;75;21043;-87
2022/05/24 15:41:24;;;;;;;3.58;0.80;;;21.20;99.90;;;;;;1904476;75;21121;-88
2022/05/24 15:44:15;;;;;;;4.15;2.17;;;21.20;99.90;;;;;;1904359;75;21061;-87
2022/05/24 15:47:09;;;;;;;2.80;1.40;;;21.30;99.90;;;;;;1916761;75;21098;-87
2022/05/24 15:50:01;;;;;;;3.22;0.60;;;21.30;99.90;;;;;;1916716;75;21055;-87
2022/05/24 15:52:58;;;;;;;2.00;0.70;;;21.40;99.90;;;;;;1916669;75;21094;-87
2022/05/24 15:55:49;;;;;;;2.40;0.72;;;21.40;99.90;;;;;;1916623;75;21584;-87
2022/05/24 15:58:41;;;;;;;2.00;0.80;;;21.50;99.90;;;;;;1917027;75;21639;-87
2022/05/24 16:01:33;;;;;;;3.25;0.60;;;21.60;99.90;;;;;;1904120;75;21123;-87
2022/05/24 16:10:46;;;;;;;2.58;1.60;;;21.60;99.90;;;;;;1916443;75;21099;-88
2022/05/24 16:13:41;;;;;;;3.52;1.70;;;21.50;99.90;;;;;;1939051;73;21058;-88
2022/05/24 16:16:37;;;;;;;2.45;1.40;;;21.30;99.90;;;;;;1904993;75;21164;-88
2022/05/24 16:19:31;;;;;;;1.72;0.80;;;21.20;99.90;;;;;;1924913;74;21056;-88
2022/05/24 16:22:23;;;;;;;1.47;0.68;;;21.10;99.90;;;;;;1921942;74;21126;-87
2022/05/24 16:25:17;;;;;;;2.60;0.60;;;21.10;99.90;;;;;;1916574;75;21062;-87
2022/05/24 16:28:13;;;;;;;1.85;0.95;;;21.00;99.90;;;;;;1916407;75;21136;-88
2022/05/24 16:31:04;;;;;;;2.02;0.90;;;21.10;99.90;;;;;;1925764;73;21156;-88
2022/05/24 16:33:56;;;;;;;1.50;0.80;;;21.00;99.90;;;;;;1895643;75;21892;-87
2022/05/24 16:36:48;;;;;;;3.92;0.80;;;21.00;99.90;;;;;;1894141;75;21179;-87
2022/05/24 16:39:40;;;;;;;2.67;0.72;;;21.00;99.90;;;;;;1933750;74;21103;-87
2022/05/24 16:42:32;;;;;;;0.90;0.65;;;21.00;99.90;;;;;;1920728;74;21122;-88
2022/05/24 16:45:24;;;;;;;1.80;0.90;;;21.10;99.90;;;;;;1926310;74;21188;-87
2022/05/24 16:48:16;;;;;;;1.20;0.95;;;21.00;99.90;;;;;;1881166;76;21105;-86
2022/05/24 16:51:17;;;;;;;1.30;0.80;;;20.80;99.90;;;;;;1933430;74;21047;-87
2022/05/24 17:00:39;;;;;;;2.08;1.00;;;20.60;99.90;;;;;;1929697;74;21116;-87
2022/05/24 17:03:36;;;;;;;2.58;1.55;;;20.70;99.90;;;;;;1930336;74;21440;-86
2022/05/24 17:06:29;;;;;;;3.20;1.50;;;20.80;99.90;;;;;;1920285;75;21195;-86
2022/05/24 17:09:20;;;;;;;3.72;1.47;;;20.70;99.90;;;;;;1896122;74;21168;-87
2022/05/24 17:12:13;;;;;;;1.80;1.10;;;20.70;99.90;;;;;;1913029;74;21220;-86
2022/05/24 17:15:10;;;;;;;4.65;1.37;;;20.70;99.90;;;;;;1887653;74;21161;-86
2022/05/24 17:18:01;;;;;;;4.25;1.67;;;20.70;99.90;;;;;;1903142;75;21098;-87
2022/05/24 17:20:56;;;;;;;3.17;1.32;;;20.70;99.90;;;;;;1910083;74;21740;-87
2022/05/24 17:23:47;;;;;;;1.98;1.25;;;20.70;99.90;;;;;;1894097;75;21180;-87
2022/05/24 17:26:39;;;;;;;3.50;1.52;;;20.60;99.90;;;;;;1897176;74;21634;-87
2022/05/24 17:29:31;;;;;;;2.90;1.95;;;20.60;99.90;;;;;;1923290;74;21160;-87
2022/05/24 17:32:27;;;;;;;3.77;1.40;;;20.60;99.90;;;;;;1930136;73;21736;-87
2022/05/24 17:35:19;;;;;;;3.20;1.10;;;20.60;99.90;;;;;;1890284;76;21108;-87
2022/05/24 17:38:13;;;;;;;2.37;1.12;;;20.40;99.90;;;;;;1900964;74;21103;-87
2022/05/24 17:41:09;;;;;;;2.67;1.25;;;20.10;99.90;;;;;;1901787;74;21064;-87
2022/05/24 17:44:01;;;;;;;3.03;1.27;;;20.00;99.90;;;;;;1903245;73;21128;-87
2022/05/24 17:46:58;;;;;;;5.67;2.87;;;19.90;99.90;;;;;;1933035;73;21644;-86
2022/05/24 17:49:52;;;;;;;7.28;1.30;;;19.70;99.90;;;;;;1914466;74;21050;-87
2022/05/24 17:52:43;;;;;;;3.10;1.05;;;19.60;99.90;;;;;;1917047;74;21585;-86
2022/05/24 17:55:36;;;;;;;1.67;1.00;;;19.50;99.90;;;;;;1912364;74;21141;-87
2022/05/24 17:58:29;;;;;;;1.98;1.10;;;19.50;99.90;;;;;;1845641;78;21071;-87
2022/05/24 18:01:21;;;;;;;3.00;1.10;;;19.50;99.90;;;;;;1908010;74;21126;-87
2022/05/24 18:04:13;;;;;;;2.58;1.20;;;19.40;99.90;;;;;;1892021;75;21175;-87
2022/05/24 18:07:06;;;;;;;1.50;0.98;;;19.40;99.90;;;;;;1886017;75;21120;-87
2022/05/24 18:09:59;;;;;;;3.37;1.57;;;19.30;99.90;;;;;;1928460;73;21035;-86
2022/05/24 18:12:51;;;;;;;4.10;1.80;;;19.30;99.90;;;;;;1899133;75;21064;-87
2022/05/24 18:18:23;;;;;;;3.00;1.30;;;19.30;99.90;;;;;;1940549;72;22122;-86
2022/05/24 18:21:38;;;;;;;1.87;0.95;;;19.30;99.90;;;;;;1899774;75;21952;-86
2022/05/24 18:24:52;;;;;;;3.70;1.17;;;19.20;99.90;;;;;;1883673;75;21166;-85
2022/05/24 18:34:31;;;;;;;3.62;1.90;;;19.00;99.90;;;;;;1883596;75;21145;-86
2022/05/24 18:37:25;;;;;;;5.00;1.60;;;19.10;99.90;;;;;;1884460;75;21059;-87
2022/05/24 18:42:56;;;;;;;3.02;1.30;;;19.10;99.90;;;;;;1955661;72;22178;-85
2022/05/24 18:46:07;;;;;;;2.98;1.02;;;19.10;99.90;;;;;;1909402;75;21542;-85
2022/05/24 18:49:18;;;;;;;5.03;1.20;;;19.00;99.90;;;;;;1895319;75;21085;-86
2022/05/24 18:52:14;;;;;;;1.77;1.25;;;19.00;99.90;;;;;;1891023;75;21132;-86
2022/05/24 18:55:24;;;;;;;3.17;1.30;;;18.90;99.90;;;;;;1910987;75;21052;-87
2022/05/24 18:58:18;;;;;;;3.80;0.95;;;18.90;99.90;;;;;;1900578;75;21131;-86
2022/05/24 19:01:12;;;;;;;3.00;1.27;;;18.90;99.90;;;;;;1906888;74;21102;-86
2022/05/24 19:07:16;;;;;;;1.82;1.10;;;18.90;99.90;;;;;;1966904;72;22102;-86
2022/05/24 19:09:58;;;;;;;2.80;1.10;;;18.90;99.90;;;;;;1917715;75;21088;-87
2022/05/24 19:13:09;;;;;;;1.00;0.78;;;18.80;99.90;;;;;;1917686;75;21064;-87
2022/05/24 19:16:03;;;;;;;2.85;1.70;;;18.80;99.90;;;;;;1917322;75;21102;-87